createdAt,value
2018-03-27T00:01:14.496Z,46.07
2018-03-27T00:03:44.550Z,43.27
2018-03-27T00:06:13.651Z,42.80
2018-03-27T00:08:43.503Z,45.07
2018-03-27T00:11:12.828Z,44.50
2018-03-27T00:13:42.782Z,47.53
2018-03-27T00:16:11.782Z,44.80
2018-03-27T00:18:40.883Z,43.43
2018-03-27T00:21:10.034Z,42.73
2018-03-27T00:23:39.892Z,43.73
2018-03-27T00:26:08.959Z,41.80
2018-03-27T00:28:49.612Z,41.63
2018-03-27T00:31:36.731Z,41.30
2018-03-27T00:34:23.544Z,44.47
2018-03-27T00:37:09.844Z,43.03
2018-03-27T00:39:56.422Z,42.73
2018-03-27T00:42:39.899Z,40.33
2018-03-27T00:45:09.404Z,44.47
2018-03-27T00:47:38.090Z,42.03
2018-03-27T00:50:07.603Z,37.13
2018-03-27T00:52:36.886Z,38.63
2018-03-27T00:55:06.742Z,38.07
2018-03-27T00:57:35.748Z,40.67
2018-03-27T01:00:05.755Z,40.40
2018-03-27T01:02:35.531Z,36.50
2018-03-27T01:05:10.382Z,36.87
2018-03-27T01:07:39.473Z,41.27
2018-03-27T01:10:08.628Z,38.20
2018-03-27T01:12:37.596Z,40.70
2018-03-27T01:15:07.708Z,36.23
2018-03-27T01:17:37.398Z,41.37
2018-03-27T01:20:06.499Z,35.63
2018-03-27T01:22:35.526Z,35.17
2018-03-27T01:25:04.952Z,37.67
2018-03-27T01:27:34.086Z,37.17
2018-03-27T01:30:03.214Z,46.47
2018-03-27T01:32:33.292Z,34.10
2018-03-27T01:35:02.503Z,33.50
2018-03-27T01:37:32.251Z,33.07
2018-03-27T01:40:01.384Z,34.03
2018-03-27T01:42:30.394Z,32.93
2018-03-27T01:44:59.475Z,32.40
2018-03-27T01:47:28.491Z,33.00
2018-03-27T01:49:58.522Z,32.67
2018-03-27T01:52:28.218Z,33.43
2018-03-27T01:54:58.250Z,37.60
2018-03-27T01:57:28.255Z,36.90
2018-03-27T01:59:58.214Z,33.30
2018-03-27T02:02:27.215Z,33.43
2018-03-27T02:04:56.479Z,35.07
2018-03-27T02:07:26.296Z,31.13
2018-03-27T02:09:56.175Z,35.60
2018-03-27T02:12:30.703Z,35.00
2018-03-27T02:15:05.365Z,32.97
2018-03-27T02:17:40.383Z,37.57
2018-03-27T02:20:16.119Z,31.50
2018-03-27T02:23:06.431Z,33.30
2018-03-27T02:25:36.462Z,30.70
2018-03-27T02:28:06.275Z,30.57
2018-03-27T02:30:36.064Z,31.83
2018-03-27T02:33:05.011Z,28.40
2018-03-27T02:35:35.131Z,29.73
2018-03-27T02:38:04.227Z,25.47
2018-03-27T02:40:33.503Z,31.23
2018-03-27T02:43:02.740Z,32.00
2018-03-27T02:45:31.866Z,34.60
2018-03-27T02:48:00.883Z,30.90
2018-03-27T02:50:30.913Z,24.53
2018-03-27T02:53:00.035Z,29.33
2018-03-27T02:55:29.210Z,25.80
2018-03-27T02:57:58.399Z,26.87
2018-03-27T03:00:28.454Z,26.30
2018-03-27T03:02:57.528Z,29.30
2018-03-27T03:05:26.760Z,24.60
2018-03-27T03:07:55.748Z,24.47
2018-03-27T03:10:24.883Z,25.93
2018-03-27T03:12:53.846Z,28.93
2018-03-27T03:15:22.971Z,25.83
2018-03-27T03:17:51.833Z,20.70
2018-03-27T03:20:21.107Z,21.53
2018-03-27T03:22:50.562Z,27.20
2018-03-27T03:25:19.835Z,27.70
2018-03-27T03:27:48.930Z,21.57
2018-03-27T03:30:18.204Z,28.60
2018-03-27T03:32:48.118Z,18.30
2018-03-27T03:35:17.994Z,18.93
2018-03-27T03:37:46.963Z,23.30
2018-03-27T03:40:15.958Z,30.50
2018-03-27T03:42:44.952Z,24.47
2018-03-27T03:45:14.083Z,25.33
2018-03-27T03:47:43.043Z,27.30
2018-03-27T03:50:12.172Z,27.03
2018-03-27T03:52:41.131Z,24.50
2018-03-27T03:55:11.731Z,25.77
2018-03-27T03:57:40.715Z,22.93
2018-03-27T04:00:09.790Z,24.90
2018-03-27T04:02:39.666Z,32.77
2018-03-27T04:05:08.738Z,35.87
2018-03-27T04:07:37.834Z,30.10
2018-03-27T04:10:08.367Z,26.80
2018-03-27T04:12:37.465Z,27.83
2018-03-27T04:15:06.695Z,29.80
2018-03-27T04:17:35.682Z,36.93
2018-03-27T04:20:04.821Z,30.07
2018-03-27T04:22:33.774Z,32.27
2018-03-27T04:25:02.967Z,27.53
2018-03-27T04:27:31.927Z,34.63
2018-03-27T04:30:01.961Z,38.27
2018-03-27T04:32:30.879Z,28.13
2018-03-27T04:35:00.150Z,32.20
2018-03-27T04:37:30.129Z,29.33
2018-03-27T04:39:59.517Z,24.53
2018-03-27T04:42:29.476Z,29.10
2018-03-27T04:44:58.923Z,33.83
2018-03-27T04:47:27.919Z,26.90
2018-03-27T04:49:57.186Z,34.57
2018-03-27T04:52:26.298Z,30.33
2018-03-27T04:54:55.419Z,22.27
2018-03-27T04:57:24.520Z,29.10
2018-03-27T04:59:53.715Z,32.30
2018-03-27T05:02:22.758Z,34.33
2018-03-27T05:04:51.843Z,34.30
2018-03-27T05:07:21.716Z,35.73
2018-03-27T05:09:51.034Z,25.03
2018-03-27T05:12:20.088Z,41.10
2018-03-27T05:14:50.112Z,27.50
2018-03-27T05:17:19.851Z,32.47
2018-03-27T05:19:48.980Z,30.47
2018-03-27T05:22:17.938Z,24.80
2018-03-27T05:24:47.071Z,30.40
2018-03-27T05:27:17.051Z,28.10
2018-03-27T05:29:46.329Z,27.10
2018-03-27T05:32:15.423Z,30.23
2018-03-27T05:34:44.655Z,27.50
2018-03-27T05:37:13.651Z,27.13
2018-03-27T05:39:42.714Z,37.20
2018-03-27T05:42:12.626Z,40.10
2018-03-27T05:44:42.515Z,41.50
2018-03-27T05:47:11.429Z,54.27
2018-03-27T05:49:40.539Z,49.43
2018-03-27T05:52:10.376Z,48.57
2018-03-27T05:54:39.650Z,38.90
2018-03-27T05:57:08.323Z,47.13
2018-03-27T05:59:38.159Z,33.60
2018-03-27T06:02:07.142Z,16.50
2018-03-27T06:04:36.353Z,17.10
2018-03-27T06:07:05.226Z,19.90
2018-03-27T06:09:34.330Z,22.30
2018-03-27T06:12:04.174Z,15.90
2018-03-27T06:14:33.447Z,19.83
2018-03-27T06:17:02.546Z,22.47
2018-03-27T06:19:32.559Z,18.37
2018-03-27T06:22:02.263Z,15.40
2018-03-27T06:24:32.295Z,28.40
2018-03-27T06:27:01.291Z,15.10
2018-03-27T06:29:30.591Z,14.97
2018-03-27T06:32:00.505Z,17.60
2018-03-27T06:34:30.387Z,18.70
2018-03-27T06:36:59.403Z,18.77
2018-03-27T06:39:28.515Z,24.20
2018-03-27T06:41:58.338Z,21.27
2018-03-27T06:44:27.631Z,20.53
2018-03-27T06:46:56.684Z,19.53
2018-03-27T06:49:25.788Z,20.10
2018-03-27T06:51:54.866Z,24.87
2018-03-27T06:54:23.880Z,19.87
2018-03-27T06:56:53.002Z,25.10
2018-03-27T06:59:22.101Z,19.90
2018-03-27T07:01:51.956Z,20.10
2018-03-27T07:04:21.223Z,17.60
2018-03-27T07:06:50.423Z,25.87
2018-03-27T07:09:20.437Z,18.80
2018-03-27T07:11:50.088Z,22.07
2018-03-27T07:14:19.175Z,16.00
2018-03-27T07:16:48.199Z,21.80
2018-03-27T07:19:17.323Z,17.17
2018-03-27T07:21:46.436Z,21.47
2018-03-27T07:24:15.827Z,20.80
2018-03-27T07:26:45.864Z,13.33
2018-03-27T07:29:15.987Z,19.90
2018-03-27T07:31:45.283Z,27.13
2018-03-27T07:34:14.446Z,19.30
2018-03-27T07:36:44.323Z,17.90
2018-03-27T07:39:13.602Z,17.43
2018-03-27T07:41:43.574Z,17.77
2018-03-27T07:44:12.914Z,20.67
2018-03-27T07:46:42.663Z,25.73
2018-03-27T07:49:11.791Z,19.60
2018-03-27T07:51:40.755Z,14.33
2018-03-27T07:54:09.746Z,17.50
2018-03-27T07:56:38.746Z,18.80
2018-03-27T07:59:08.826Z,20.87
2018-03-27T08:01:37.931Z,26.63
2018-03-27T08:04:07.127Z,20.80
2018-03-27T08:06:37.003Z,28.10
2018-03-27T08:09:07.022Z,20.07
2018-03-27T08:11:35.988Z,24.00
2018-03-27T08:14:06.079Z,17.70
2018-03-27T08:16:35.071Z,15.73
2018-03-27T08:19:05.251Z,22.03
2018-03-27T08:21:34.389Z,16.73
2018-03-27T08:24:03.641Z,21.60
2018-03-27T08:26:32.686Z,17.67
2018-03-27T08:29:01.920Z,20.77
2018-03-27T08:31:30.916Z,23.67
2018-03-27T08:34:00.071Z,14.80
2018-03-27T08:36:29.105Z,17.70
2018-03-27T08:38:58.130Z,13.80
2018-03-27T08:41:27.150Z,21.50
2018-03-27T08:43:57.094Z,24.97
2018-03-27T08:46:26.382Z,17.03
2018-03-27T08:48:55.552Z,23.10
2018-03-27T08:51:24.507Z,21.50
2018-03-27T08:53:53.638Z,21.57
2018-03-27T08:56:22.494Z,27.53
2018-03-27T08:58:51.690Z,25.83
2018-03-27T09:01:20.691Z,16.60
2018-03-27T09:03:50.703Z,18.60
2018-03-27T09:06:19.804Z,26.53
2018-03-27T09:08:48.875Z,24.13
2018-03-27T09:11:17.899Z,22.17
2018-03-27T09:13:47.171Z,21.63
2018-03-27T09:16:16.159Z,21.27
2018-03-27T09:18:45.427Z,18.27
2018-03-27T09:21:14.446Z,23.23
2018-03-27T09:23:43.551Z,17.83
2018-03-27T09:26:13.395Z,29.63
2018-03-27T09:28:42.673Z,14.33
2018-03-27T09:31:11.935Z,19.53
2018-03-27T09:33:41.067Z,16.40
2018-03-27T09:36:11.086Z,17.33
2018-03-27T09:38:40.319Z,18.30
2018-03-27T09:41:09.315Z,20.20
2018-03-27T09:43:38.442Z,17.13
2018-03-27T09:46:07.463Z,20.13
2018-03-27T09:48:36.675Z,20.37
2018-03-27T09:51:05.619Z,21.60
2018-03-27T09:53:34.671Z,19.70
2018-03-27T09:56:03.949Z,20.30
2018-03-27T09:58:34.015Z,24.20
2018-03-27T10:01:08.799Z,23.50
2018-03-27T10:03:39.134Z,23.07
2018-03-27T10:06:08.839Z,25.40
2018-03-27T10:08:37.947Z,25.10
2018-03-27T10:11:06.926Z,20.27
2018-03-27T10:13:36.043Z,20.90
2018-03-27T10:16:05.325Z,22.80
2018-03-27T10:18:34.771Z,21.23
2018-03-27T10:21:03.843Z,22.10
2018-03-27T10:23:33.143Z,19.97
2018-03-27T10:26:02.141Z,20.80
2018-03-27T10:28:31.299Z,19.63
2018-03-27T10:31:00.263Z,21.43
2018-03-27T10:33:29.223Z,21.73
2018-03-27T10:35:58.323Z,19.83
2018-03-27T10:38:27.629Z,25.20
2018-03-27T10:40:56.511Z,21.00
2018-03-27T10:43:25.579Z,30.53
2018-03-27T10:45:55.450Z,20.40
2018-03-27T10:48:24.728Z,20.67
2018-03-27T10:50:53.827Z,22.17
2018-03-27T10:53:23.870Z,26.60
2018-03-27T10:55:52.974Z,24.53
2018-03-27T10:58:22.244Z,30.73
2018-03-27T11:00:51.350Z,21.27
2018-03-27T11:03:20.604Z,28.03
2018-03-27T11:05:49.618Z,23.43
2018-03-27T11:08:19.655Z,25.03
2018-03-27T11:10:49.554Z,24.03
2018-03-27T11:13:19.523Z,24.40
2018-03-27T11:15:48.411Z,26.63
2018-03-27T11:18:18.522Z,19.63
2018-03-27T11:20:47.699Z,28.53
2018-03-27T11:23:17.898Z,25.93
2018-03-27T11:25:47.010Z,22.13
2018-03-27T11:28:16.800Z,28.17
2018-03-27T11:30:45.819Z,30.90
2018-03-27T11:33:15.670Z,27.40
2018-03-27T11:35:44.739Z,22.53
2018-03-27T11:38:14.041Z,26.40
2018-03-27T11:40:43.271Z,23.20
2018-03-27T11:43:12.300Z,24.87
2018-03-27T11:45:41.316Z,23.70
2018-03-27T11:48:11.352Z,24.70
2018-03-27T11:50:40.447Z,29.87
2018-03-27T11:53:09.747Z,25.30
2018-03-27T11:55:38.775Z,25.37
2018-03-27T11:58:08.887Z,24.20
2018-03-27T12:00:37.982Z,26.37
2018-03-27T12:03:08.249Z,29.37
2018-03-27T12:05:37.588Z,24.80
2018-03-27T12:08:06.887Z,24.70
2018-03-27T12:10:35.998Z,25.70
2018-03-27T12:13:06.003Z,24.97
2018-03-27T12:15:35.203Z,24.07
2018-03-27T12:18:04.505Z,27.27
2018-03-27T12:20:33.533Z,21.43
2018-03-27T12:23:02.660Z,29.40
2018-03-27T12:25:31.723Z,22.57
2018-03-27T12:28:00.990Z,25.63
2018-03-27T12:30:30.280Z,21.63
2018-03-27T12:32:59.594Z,26.83
2018-03-27T12:35:29.297Z,24.80
2018-03-27T12:37:58.375Z,24.23
2018-03-27T12:40:28.143Z,22.30
2018-03-27T12:42:57.622Z,27.83
2018-03-27T12:45:26.551Z,26.63
2018-03-27T12:47:56.695Z,23.73
2018-03-27T12:50:25.835Z,25.93
2018-03-27T12:52:55.063Z,35.00
2018-03-27T12:55:24.158Z,23.23
2018-03-27T12:57:53.439Z,24.73
2018-03-27T13:00:23.451Z,25.37
2018-03-27T13:02:52.575Z,21.63
2018-03-27T13:05:21.671Z,24.93
2018-03-27T13:07:50.850Z,26.97
2018-03-27T13:10:19.943Z,28.50
2018-03-27T13:12:48.938Z,25.83
2018-03-27T13:15:18.838Z,28.63
2018-03-27T13:17:48.284Z,25.23
2018-03-27T13:20:18.466Z,30.10
2018-03-27T13:22:47.779Z,27.27
2018-03-27T13:25:16.875Z,27.33
2018-03-27T13:27:46.182Z,33.20
2018-03-27T13:30:15.287Z,25.47
2018-03-27T13:32:44.479Z,29.47
2018-03-27T13:35:13.575Z,25.93
2018-03-27T13:37:42.707Z,26.03
2018-03-27T13:40:11.802Z,26.83
2018-03-27T13:42:40.927Z,28.40
2018-03-27T13:45:11.431Z,28.67
2018-03-27T13:47:40.456Z,27.27
2018-03-27T13:50:10.304Z,26.27
2018-03-27T13:52:39.612Z,31.50
2018-03-27T13:55:09.308Z,28.37
2018-03-27T13:57:38.783Z,31.90
2018-03-27T14:00:09.518Z,31.63
2018-03-27T14:02:38.759Z,35.60
2018-03-27T14:05:07.859Z,31.90
2018-03-27T14:07:37.057Z,26.43
2018-03-27T14:10:06.050Z,30.00
2018-03-27T14:12:35.048Z,35.90
2018-03-27T14:15:04.077Z,33.53
2018-03-27T14:17:33.267Z,28.50
2018-03-27T14:20:02.239Z,31.33
2018-03-27T14:22:31.467Z,29.63
2018-03-27T14:25:00.358Z,34.10
2018-03-27T14:27:29.592Z,32.57
2018-03-27T14:29:58.502Z,29.80
2018-03-27T14:32:27.614Z,38.17
2018-03-27T14:34:56.542Z,35.03
2018-03-27T14:37:25.667Z,29.40
2018-03-27T14:39:55.546Z,28.47
2018-03-27T14:42:24.726Z,32.30
2018-03-27T14:44:53.814Z,28.43
2018-03-27T14:47:23.119Z,30.37
2018-03-27T14:49:52.992Z,31.60
2018-03-27T14:52:22.259Z,29.23
2018-03-27T14:54:51.358Z,29.43
2018-03-27T14:57:20.635Z,28.17
2018-03-27T14:59:49.731Z,28.80
2018-03-27T15:02:18.927Z,29.40
2018-03-27T15:04:47.926Z,31.23
2018-03-27T15:07:17.123Z,41.30
2018-03-27T15:09:46.053Z,30.57
2018-03-27T15:12:15.246Z,29.03
2018-03-27T15:14:44.134Z,33.53
2018-03-27T15:17:13.338Z,28.63
2018-03-27T15:19:42.335Z,29.70
2018-03-27T15:22:11.464Z,30.73
2018-03-27T15:24:40.219Z,31.60
2018-03-27T15:27:09.215Z,34.80
2018-03-27T15:29:38.175Z,31.07
2018-03-27T15:32:07.339Z,29.37
2018-03-27T15:34:36.299Z,35.67
2018-03-27T15:37:05.426Z,29.07
2018-03-27T15:39:34.403Z,30.63
2018-03-27T15:42:05.210Z,30.27
2018-03-27T15:44:33.977Z,33.30
2018-03-27T15:47:03.085Z,30.90
2018-03-27T15:49:33.000Z,31.97
2018-03-27T15:52:02.711Z,32.57
2018-03-27T15:54:31.997Z,34.93
2018-03-27T15:57:01.207Z,30.93
2018-03-27T15:59:30.306Z,30.63
2018-03-27T16:01:59.610Z,33.13
2018-03-27T16:04:28.680Z,31.67
2018-03-27T16:06:58.162Z,46.53
2018-03-27T16:09:28.056Z,44.40
2018-03-27T16:11:57.330Z,77.47
2018-03-27T16:14:27.232Z,36.43
2018-03-27T16:16:56.544Z,36.43
2018-03-27T16:19:25.672Z,32.53
2018-03-27T16:21:54.563Z,33.47
2018-03-27T16:24:23.526Z,31.63
2018-03-27T16:26:52.655Z,33.00
2018-03-27T16:29:21.754Z,30.27
2018-03-27T16:31:50.923Z,34.67
2018-03-27T16:34:19.919Z,34.53
2018-03-27T16:36:49.219Z,42.10
2018-03-27T16:39:18.215Z,42.77
2018-03-27T16:41:47.448Z,34.93
2018-03-27T16:44:16.443Z,33.50
2018-03-27T16:46:45.571Z,35.10
2018-03-27T16:49:14.543Z,34.17
2018-03-27T16:51:43.798Z,34.00
2018-03-27T16:54:12.727Z,33.60
2018-03-27T16:56:41.827Z,35.50
2018-03-27T16:59:10.770Z,34.67
2018-03-27T17:01:39.948Z,32.77
2018-03-27T17:04:09.830Z,34.77
2018-03-27T17:06:38.998Z,36.20
2018-03-27T17:09:08.019Z,36.83
2018-03-27T17:11:37.296Z,34.50
2018-03-27T17:14:07.194Z,36.60
2018-03-27T17:16:36.507Z,35.37
2018-03-27T17:19:05.612Z,34.90
2018-03-27T17:21:35.323Z,35.70
2018-03-27T17:24:05.027Z,33.97
2018-03-27T17:26:34.259Z,34.10
2018-03-27T17:29:04.336Z,33.07
2018-03-27T17:31:33.651Z,31.13
2018-03-27T17:34:02.779Z,34.70
2018-03-27T17:36:31.871Z,36.90
2018-03-27T17:39:00.834Z,37.13
2018-03-27T17:41:30.147Z,37.37
2018-03-27T17:43:59.239Z,41.50
2018-03-27T17:46:29.255Z,38.53
2018-03-27T17:48:58.311Z,40.23
2018-03-27T17:51:27.684Z,40.90
2018-03-27T17:53:56.859Z,38.00
2018-03-27T17:56:26.159Z,40.37
2018-03-27T17:58:55.187Z,36.97
2018-03-27T18:01:24.282Z,35.33
2018-03-27T18:03:53.486Z,39.23
2018-03-27T18:06:22.547Z,35.93
2018-03-27T18:08:51.571Z,36.63
2018-03-27T18:11:20.643Z,40.17
2018-03-27T18:13:50.555Z,47.53
2018-03-27T18:16:20.670Z,35.70
2018-03-27T18:18:50.423Z,53.47
2018-03-27T18:21:19.559Z,42.17
2018-03-27T18:23:49.323Z,37.83
2018-03-27T18:26:18.598Z,36.60
2018-03-27T18:28:48.571Z,39.47
2018-03-27T18:31:17.844Z,40.53
2018-03-27T18:33:46.939Z,41.87
2018-03-27T18:36:16.214Z,36.23
2018-03-27T18:38:46.114Z,38.17
2018-03-27T18:41:15.428Z,40.57
2018-03-27T18:43:44.527Z,37.30
2018-03-27T18:46:13.761Z,34.93
2018-03-27T18:48:42.822Z,43.00
2018-03-27T18:51:12.027Z,48.57
2018-03-27T18:53:41.019Z,43.13
2018-03-27T18:56:10.359Z,43.37
2018-03-27T18:58:39.355Z,44.73
2018-03-27T19:01:08.546Z,41.73
2018-03-27T19:03:37.440Z,41.53
2018-03-27T19:06:06.568Z,39.40
2018-03-27T19:08:35.531Z,38.40
2018-03-27T19:11:04.655Z,42.77
2018-03-27T19:13:33.622Z,42.00
2018-03-27T19:16:02.775Z,49.13
2018-03-27T19:18:32.631Z,51.13
2018-03-27T19:21:01.804Z,53.13
2018-03-27T19:23:30.899Z,46.80
2018-03-27T19:26:00.027Z,47.97
2018-03-27T19:28:29.023Z,55.20
2018-03-27T19:30:58.113Z,53.70
2018-03-27T19:33:27.019Z,57.70
2018-03-27T19:35:56.211Z,53.33
2018-03-27T19:38:25.185Z,64.87
2018-03-27T19:40:54.345Z,72.50
2018-03-27T19:43:23.251Z,51.00
2018-03-27T19:45:52.362Z,54.43
2018-03-27T19:48:22.099Z,60.80
2018-03-27T19:50:51.375Z,54.23
2018-03-27T19:53:20.471Z,58.30
2018-03-27T19:55:49.671Z,57.23
2018-03-27T19:58:18.799Z,74.97
2018-03-27T20:00:47.827Z,63.70
2018-03-27T20:03:17.702Z,66.07
2018-03-27T20:05:46.983Z,53.60
2018-03-27T20:08:15.975Z,63.83
2018-03-27T20:10:45.685Z,69.20
2018-03-27T20:13:14.667Z,57.20
2018-03-27T20:15:43.662Z,55.13
2018-03-27T20:18:12.719Z,55.13
2018-03-27T20:20:41.773Z,56.37
2018-03-27T20:23:11.053Z,52.47
2018-03-27T20:25:40.367Z,63.10
2018-03-27T20:28:09.509Z,46.87
2018-03-27T20:30:38.875Z,47.10
2018-03-27T20:33:08.847Z,57.20
2018-03-27T20:35:38.186Z,52.90
2018-03-27T20:38:07.185Z,48.27
2018-03-27T20:40:36.486Z,53.13
2018-03-27T20:43:05.478Z,46.73
2018-03-27T20:45:34.787Z,60.77
2018-03-27T20:48:04.759Z,58.47
2018-03-27T20:50:34.027Z,46.43
2018-03-27T20:53:03.020Z,51.87
2018-03-27T20:55:32.298Z,51.37
2018-03-27T20:58:01.899Z,59.33
2018-03-27T21:00:31.263Z,53.77
2018-03-27T21:03:00.494Z,58.67
2018-03-27T21:05:29.819Z,48.33
2018-03-27T21:07:58.903Z,49.33
2018-03-27T21:10:28.210Z,50.07
2018-03-27T21:12:57.207Z,48.43
2018-03-27T21:15:26.432Z,45.63
2018-03-27T21:17:55.398Z,48.03
2018-03-27T21:20:24.767Z,62.80
2018-03-27T21:22:53.695Z,44.97
2018-03-27T21:25:22.862Z,48.37
2018-03-27T21:27:51.815Z,47.00
2018-03-27T21:30:21.019Z,44.90
2018-03-27T21:32:51.030Z,46.53
2018-03-27T21:35:20.308Z,46.93
2018-03-27T21:37:50.278Z,52.30
2018-03-27T21:40:19.519Z,44.13
2018-03-27T21:42:48.648Z,54.37
2018-03-27T21:45:17.718Z,53.37
2018-03-27T21:47:46.816Z,52.73
2018-03-27T21:50:16.995Z,56.07
2018-03-27T21:52:46.131Z,62.37
2018-03-27T21:55:15.358Z,49.53
2018-03-27T21:57:44.454Z,56.67
2018-03-27T22:00:13.631Z,59.17
2018-03-27T22:02:42.727Z,55.17
2018-03-27T22:05:12.525Z,54.50
2018-03-27T22:07:42.460Z,46.93
2018-03-27T22:10:12.578Z,54.87
2018-03-27T22:12:41.599Z,56.97
2018-03-27T22:15:10.874Z,62.90
2018-03-27T22:17:39.873Z,54.33
2018-03-27T22:20:09.099Z,60.23
2018-03-27T22:22:38.163Z,58.20
2018-03-27T22:25:07.263Z,51.37
2018-03-27T22:27:36.324Z,46.30
2018-03-27T22:30:05.518Z,48.97
2018-03-27T22:32:34.638Z,52.40
2018-03-27T22:35:03.608Z,57.63
2018-03-27T22:37:33.465Z,53.33
2018-03-27T22:40:02.767Z,59.83
2018-03-27T22:42:32.463Z,53.10
2018-03-27T22:45:01.466Z,49.63
2018-03-27T22:47:30.447Z,59.03
2018-03-27T22:49:59.458Z,49.93
2018-03-27T22:52:28.441Z,51.57
2018-03-27T22:54:57.446Z,47.43
2018-03-27T22:57:26.427Z,52.63
2018-03-27T22:59:55.435Z,48.70
2018-03-27T23:02:24.418Z,46.37
2018-03-27T23:04:53.522Z,47.00
2018-03-27T23:07:22.815Z,47.80
2018-03-27T23:09:52.128Z,58.87
2018-03-27T23:12:21.230Z,47.47
2018-03-27T23:14:50.430Z,58.30
2018-03-27T23:17:19.424Z,50.87
2018-03-27T23:19:48.722Z,51.93
2018-03-27T23:22:29.351Z,47.77
2018-03-27T23:24:58.690Z,48.53
2018-03-27T23:27:28.438Z,53.60
2018-03-27T23:29:57.330Z,49.17
2018-03-27T23:32:26.390Z,50.87
2018-03-27T23:34:56.642Z,47.47
2018-03-27T23:37:25.639Z,63.30
2018-03-27T23:39:54.915Z,47.17
2018-03-27T23:42:23.906Z,48.97
2018-03-27T23:44:53.139Z,48.33
2018-03-27T23:47:22.206Z,48.87
2018-03-27T23:49:51.234Z,47.80
2018-03-27T23:52:20.295Z,52.53
2018-03-27T23:54:49.426Z,53.33
2018-03-27T23:57:18.427Z,48.57
2018-03-27T23:59:47.451Z,48.40
